createdAt,value
2023-05-10T00:00:23.889Z,17.28
2023-05-10T00:01:27.424Z,17.26
2023-05-10T00:02:32.368Z,17.26
2023-05-10T00:03:36.218Z,17.24
2023-05-10T00:04:40.439Z,17.22
2023-05-10T00:05:44.791Z,17.13
2023-05-10T00:06:49.396Z,17.16
2023-05-10T00:07:53.473Z,17.15
2023-05-10T00:08:58.066Z,17.18
2023-05-10T00:10:02.404Z,17.13
2023-05-10T00:11:06.764Z,17.20
2023-05-10T00:12:11.131Z,17.20
2023-05-10T00:13:15.186Z,17.21
2023-05-10T00:14:19.487Z,17.21
2023-05-10T00:15:23.833Z,17.26
2023-05-10T00:16:28.209Z,17.31
2023-05-10T00:17:33.102Z,17.29
2023-05-10T00:18:37.107Z,17.26
2023-05-10T00:19:41.518Z,17.29
2023-05-10T00:20:45.547Z,17.23
2023-05-10T00:21:49.881Z,17.15
2023-05-10T00:22:54.471Z,17.12
2023-05-10T00:23:58.577Z,17.09
2023-05-10T00:25:03.138Z,17.07
2023-05-10T00:26:07.488Z,17.05
2023-05-10T00:27:12.083Z,17.13
2023-05-10T00:28:16.429Z,17.16
2023-05-10T00:29:20.524Z,17.21
2023-05-10T00:30:25.856Z,17.22
2023-05-10T00:31:30.222Z,17.28
2023-05-10T00:32:34.603Z,17.32
2023-05-10T00:33:38.861Z,17.32
2023-05-10T00:34:43.237Z,17.32
2023-05-10T00:35:47.861Z,17.34
2023-05-10T00:36:51.921Z,17.36
2023-05-10T00:37:56.252Z,17.35
2023-05-10T00:39:00.605Z,17.35
2023-05-10T00:40:04.919Z,17.28
2023-05-10T00:41:09.012Z,17.29
2023-05-10T00:42:13.350Z,17.27
2023-05-10T00:43:17.688Z,17.26
2023-05-10T00:44:22.284Z,17.29
2023-05-10T00:45:26.632Z,17.11
2023-05-10T00:46:30.853Z,17.09
2023-05-10T00:47:35.351Z,17.08
2023-05-10T00:48:39.647Z,17.09
2023-05-10T00:49:43.736Z,17.09
2023-05-10T00:50:48.325Z,17.08
2023-05-10T00:51:52.438Z,17.06
2023-05-10T00:52:56.771Z,17.10
2023-05-10T00:54:01.366Z,17.08
2023-05-10T00:55:05.706Z,17.12
2023-05-10T00:56:09.791Z,17.11
2023-05-10T00:57:14.128Z,17.06
2023-05-10T00:58:18.720Z,16.99
2023-05-10T00:59:23.075Z,17.02
2023-05-10T01:00:28.666Z,17.01
2023-05-10T01:01:32.763Z,17.01
2023-05-10T01:02:37.156Z,17.01
2023-05-10T01:03:41.402Z,16.94
2023-05-10T01:04:45.785Z,16.97
2023-05-10T01:05:50.328Z,16.98
2023-05-10T01:06:54.727Z,16.98
2023-05-10T01:07:58.994Z,16.99
2023-05-10T01:09:03.079Z,16.96
2023-05-10T01:10:07.423Z,16.95
2023-05-10T01:11:12.265Z,16.92
2023-05-10T01:12:16.642Z,16.80
2023-05-10T01:13:20.472Z,16.83
2023-05-10T01:14:24.796Z,16.82
2023-05-10T01:15:29.388Z,16.87
2023-05-10T01:16:33.503Z,16.86
2023-05-10T01:17:37.871Z,16.87
2023-05-10T01:18:42.101Z,16.88
2023-05-10T01:19:46.688Z,16.87
2023-05-10T01:20:51.285Z,16.82
2023-05-10T01:21:55.380Z,16.75
2023-05-10T01:22:59.492Z,16.65
2023-05-10T01:25:16.973Z,16.50
2023-05-10T01:26:22.078Z,16.48
2023-05-10T01:27:26.665Z,16.42
2023-05-10T01:28:30.985Z,16.36
2023-05-10T01:29:35.592Z,16.32
2023-05-10T01:30:39.683Z,16.23
2023-05-10T01:31:44.150Z,16.26
2023-05-10T01:32:48.121Z,16.16
2023-05-10T01:33:52.692Z,16.01
2023-05-10T01:34:56.764Z,15.87
2023-05-10T01:36:01.378Z,15.92
2023-05-10T01:37:05.683Z,15.74
2023-05-10T01:38:09.789Z,15.74
2023-05-10T01:39:14.353Z,15.63
2023-05-10T01:40:18.706Z,15.55
2023-05-10T01:41:23.018Z,15.55
2023-05-10T01:42:27.112Z,15.58
2023-05-10T01:43:31.686Z,15.57
2023-05-10T01:44:35.778Z,15.46
2023-05-10T01:45:40.356Z,15.39
2023-05-10T01:46:44.480Z,15.42
2023-05-10T01:47:49.339Z,15.36
2023-05-10T01:48:53.376Z,15.28
2023-05-10T01:49:57.449Z,15.16
2023-05-10T01:51:01.803Z,15.08
2023-05-10T01:52:06.411Z,15.09
2023-05-10T01:53:10.476Z,15.05
2023-05-10T01:54:14.806Z,15.11
2023-05-10T01:55:15.181Z,14.99
2023-05-10T01:56:19.492Z,15.01
2023-05-10T01:57:23.580Z,15.00
2023-05-10T01:58:29.466Z,14.87
2023-05-10T01:59:28.062Z,14.87
2023-05-10T02:00:32.705Z,14.81
2023-05-10T02:01:38.006Z,14.71
2023-05-10T02:02:36.930Z,14.59
2023-05-10T02:03:41.547Z,14.50
2023-05-10T02:04:45.822Z,14.43
2023-05-10T02:05:50.159Z,14.37
2023-05-10T02:06:54.236Z,14.42
2023-05-10T02:07:58.816Z,14.45
2023-05-10T02:09:02.896Z,14.32
2023-05-10T02:10:07.535Z,14.27
2023-05-10T02:11:11.590Z,14.25
2023-05-10T02:12:16.174Z,14.15
2023-05-10T02:13:20.586Z,14.17
2023-05-10T02:14:25.098Z,14.11
2023-05-10T02:15:28.920Z,14.11
2023-05-10T02:16:33.373Z,14.08
2023-05-10T02:17:37.887Z,14.12
2023-05-10T02:18:41.947Z,13.99
2023-05-10T02:19:46.295Z,13.91
2023-05-10T02:20:50.605Z,13.85
2023-05-10T02:21:54.947Z,13.96
2023-05-10T02:22:59.536Z,13.99
2023-05-10T02:24:03.868Z,13.98
2023-05-10T02:25:04.242Z,13.99
2023-05-10T02:26:08.680Z,14.02
2023-05-10T02:27:12.658Z,14.12
2023-05-10T02:28:16.981Z,14.17
2023-05-10T02:29:21.067Z,14.22
2023-05-10T02:30:25.678Z,14.26
2023-05-10T02:31:30.068Z,14.29
2023-05-10T02:32:34.127Z,14.37
2023-05-10T02:33:38.415Z,14.28
2023-05-10T02:34:43.024Z,14.32
2023-05-10T02:35:47.333Z,14.34
2023-05-10T02:36:51.422Z,14.37
2023-05-10T02:37:55.774Z,14.40
2023-05-10T02:39:00.350Z,14.42
2023-05-10T02:40:04.440Z,14.48
2023-05-10T02:41:08.786Z,14.46
2023-05-10T02:42:13.145Z,14.50
2023-05-10T02:43:17.982Z,14.45
2023-05-10T02:44:22.033Z,14.46
2023-05-10T02:45:26.380Z,14.47
2023-05-10T02:46:30.539Z,14.43
2023-05-10T02:47:34.815Z,14.45
2023-05-10T02:48:39.406Z,14.47
2023-05-10T02:49:43.462Z,14.50
2023-05-10T02:50:47.800Z,14.47
2023-05-10T02:51:52.412Z,14.51
2023-05-10T02:52:56.735Z,14.50
2023-05-10T02:54:01.094Z,14.52
2023-05-10T02:55:01.430Z,14.51
2023-05-10T02:56:05.499Z,14.51
2023-05-10T02:57:09.578Z,14.52
2023-05-10T02:58:14.354Z,14.40
2023-05-10T02:59:18.527Z,14.34
2023-05-10T03:00:22.589Z,14.41
2023-05-10T03:01:27.217Z,14.44
2023-05-10T03:02:31.570Z,14.31
2023-05-10T03:03:35.857Z,14.24
2023-05-10T03:04:40.260Z,14.15
2023-05-10T03:05:44.296Z,14.18
2023-05-10T03:06:48.637Z,14.27
2023-05-10T03:07:53.220Z,14.19
2023-05-10T03:08:57.564Z,14.06
2023-05-10T03:10:01.639Z,14.05
2023-05-10T03:11:06.247Z,14.07
2023-05-10T03:12:10.553Z,14.12
2023-05-10T03:13:15.296Z,14.16
2023-05-10T03:14:19.533Z,14.21
2023-05-10T03:15:23.300Z,14.26
2023-05-10T03:16:28.055Z,14.27
2023-05-10T03:17:32.001Z,14.32
2023-05-10T03:18:36.306Z,14.34
2023-05-10T03:19:40.912Z,14.32
2023-05-10T03:20:44.980Z,14.33
2023-05-10T03:21:49.828Z,14.38
2023-05-10T03:22:53.907Z,14.41
2023-05-10T03:23:57.982Z,14.42
2023-05-10T03:24:58.446Z,14.44
2023-05-10T03:26:02.514Z,14.44
2023-05-10T03:27:07.111Z,14.47
2023-05-10T03:28:11.439Z,14.49
2023-05-10T03:29:15.512Z,14.51
2023-05-10T03:30:20.124Z,14.54
2023-05-10T03:31:24.460Z,14.52
2023-05-10T03:32:28.804Z,14.52
2023-05-10T03:33:33.119Z,14.50
2023-05-10T03:34:37.693Z,14.50
2023-05-10T03:35:41.793Z,14.50
2023-05-10T03:36:46.146Z,14.49
2023-05-10T03:37:50.453Z,14.56
2023-05-10T03:38:54.803Z,14.48
2023-05-10T03:39:58.883Z,14.52
2023-05-10T03:41:03.224Z,14.50
2023-05-10T03:42:08.072Z,14.50
2023-05-10T03:43:12.393Z,14.48
2023-05-10T03:44:16.225Z,14.47
2023-05-10T03:45:20.836Z,14.48
2023-05-10T03:46:24.973Z,14.44
2023-05-10T03:47:29.271Z,14.43
2023-05-10T03:48:33.826Z,14.43
2023-05-10T03:49:37.906Z,14.41
2023-05-10T03:50:42.250Z,14.44
2023-05-10T03:51:46.842Z,14.42
2023-05-10T03:52:52.982Z,14.41
2023-05-10T03:53:51.995Z,14.35
2023-05-10T03:55:00.429Z,14.37
2023-05-10T03:56:04.494Z,14.36
2023-05-10T03:57:08.834Z,14.36
2023-05-10T03:58:13.450Z,14.30
2023-05-10T03:59:17.504Z,14.31
2023-05-10T04:00:22.367Z,14.34
2023-05-10T04:01:26.450Z,14.35
2023-05-10T04:02:30.853Z,14.39
2023-05-10T04:03:34.907Z,14.40
2023-05-10T04:04:39.195Z,14.43
2023-05-10T04:05:43.784Z,14.43
2023-05-10T04:06:48.119Z,14.42
2023-05-10T04:07:52.475Z,14.44
2023-05-10T04:08:56.552Z,14.39
2023-05-10T04:10:01.386Z,14.41
2023-05-10T04:11:05.510Z,14.46
2023-05-10T04:12:10.952Z,14.49
2023-05-10T04:13:13.958Z,14.46
2023-05-10T04:14:18.253Z,14.48
2023-05-10T04:15:22.575Z,14.52
2023-05-10T04:16:26.932Z,14.52
2023-05-10T04:17:31.247Z,14.50
2023-05-10T04:18:35.913Z,14.50
2023-05-10T04:19:40.627Z,14.53
2023-05-10T04:20:44.711Z,14.51
2023-05-10T04:21:49.054Z,14.43
2023-05-10T04:22:53.607Z,14.36
2023-05-10T04:23:57.911Z,14.32
2023-05-10T04:24:58.106Z,14.30
2023-05-10T04:26:02.733Z,14.16
2023-05-10T04:27:07.075Z,13.99
2023-05-10T04:28:11.834Z,13.87
2023-05-10T04:29:16.161Z,13.83
2023-05-10T04:30:20.480Z,13.87
2023-05-10T04:31:24.812Z,13.94
2023-05-10T04:32:29.116Z,14.01
2023-05-10T04:33:33.146Z,14.12
2023-05-10T04:34:37.769Z,14.14
2023-05-10T04:35:42.083Z,14.12
2023-05-10T04:36:46.482Z,14.13
2023-05-10T04:37:50.494Z,14.20
2023-05-10T04:38:55.197Z,14.12
2023-05-10T04:39:59.794Z,14.08
2023-05-10T04:41:03.624Z,13.93
2023-05-10T04:42:05.614Z,13.96
2023-05-10T04:43:14.012Z,13.83
2023-05-10T04:44:12.881Z,13.84
2023-05-10T04:45:17.223Z,13.85
2023-05-10T04:46:21.837Z,13.80
2023-05-10T04:47:25.935Z,13.81
2023-05-10T04:48:30.649Z,13.81
2023-05-10T04:49:35.714Z,13.91
2023-05-10T04:50:39.764Z,13.90
2023-05-10T04:51:41.612Z,13.90
2023-05-10T04:52:48.975Z,13.84
2023-05-10T04:54:01.396Z,13.86
2023-05-10T04:54:54.407Z,13.87
2023-05-10T04:55:58.217Z,13.87
2023-05-10T04:57:02.553Z,13.94
2023-05-10T04:58:07.316Z,13.97
2023-05-10T04:59:09.048Z,13.94
2023-05-10T05:00:16.854Z,13.94
2023-05-10T05:01:21.017Z,13.96
2023-05-10T05:02:24.895Z,14.00
2023-05-10T05:03:29.287Z,13.91
2023-05-10T05:04:33.728Z,13.98
2023-05-10T05:05:37.807Z,14.03
2023-05-10T05:06:42.616Z,14.04
2023-05-10T05:07:46.668Z,14.09
2023-05-10T05:08:51.686Z,14.05
2023-05-10T05:09:56.070Z,14.08
2023-05-10T05:10:59.894Z,14.15
2023-05-10T05:12:04.212Z,14.09
2023-05-10T05:13:08.869Z,14.15
2023-05-10T05:14:12.116Z,14.15
2023-05-10T05:15:17.499Z,14.11
2023-05-10T05:16:21.832Z,14.14
2023-05-10T05:17:26.217Z,14.21
2023-05-10T05:18:30.754Z,14.08
2023-05-10T05:19:34.827Z,14.16
2023-05-10T05:20:39.174Z,14.18
2023-05-10T05:21:43.498Z,14.09
2023-05-10T05:22:47.616Z,14.17
2023-05-10T05:23:51.935Z,14.21
2023-05-10T05:24:52.062Z,14.23
2023-05-10T05:25:56.391Z,14.23
2023-05-10T05:27:00.748Z,14.21
2023-05-10T05:28:05.076Z,14.25
2023-05-10T05:29:09.903Z,14.27
2023-05-10T05:30:14.113Z,14.31
2023-05-10T05:31:18.359Z,14.28
2023-05-10T05:32:22.678Z,14.33
2023-05-10T05:33:27.013Z,14.23
2023-05-10T05:34:31.084Z,14.27
2023-05-10T05:35:35.701Z,14.36
2023-05-10T05:36:40.029Z,14.28
2023-05-10T05:37:44.193Z,14.25
2023-05-10T05:38:49.537Z,14.20
2023-05-10T05:39:53.591Z,14.24
2023-05-10T05:40:57.914Z,14.29
2023-05-10T05:42:02.035Z,14.30
2023-05-10T05:43:06.606Z,14.33
2023-05-10T05:44:10.934Z,14.33
2023-05-10T05:45:15.187Z,14.39
2023-05-10T05:46:19.653Z,14.29
2023-05-10T05:47:23.749Z,14.34
2023-05-10T05:48:28.517Z,14.33
2023-05-10T05:49:33.344Z,14.39
2023-05-10T05:50:32.720Z,14.33
2023-05-10T05:51:37.071Z,14.21
2023-05-10T05:52:41.152Z,14.19
2023-05-10T05:53:45.752Z,14.31
2023-05-10T05:54:45.873Z,14.34
2023-05-10T05:55:49.946Z,14.39
2023-05-10T05:56:54.570Z,14.48
2023-05-10T05:57:58.890Z,14.60
2023-05-10T05:59:02.965Z,14.68
2023-05-10T06:00:07.312Z,14.67
2023-05-10T06:01:11.937Z,14.63
2023-05-10T06:02:16.432Z,14.70
2023-05-10T06:03:20.831Z,14.67
2023-05-10T06:04:24.967Z,14.65
2023-05-10T06:05:29.006Z,14.62
2023-05-10T06:06:33.591Z,14.59
2023-05-10T06:07:37.918Z,14.60
2023-05-10T06:08:42.036Z,14.63
2023-05-10T06:09:46.375Z,14.70
2023-05-10T06:10:50.956Z,14.78
2023-05-10T06:11:55.386Z,14.82
2023-05-10T06:12:59.766Z,14.91
2023-05-10T06:14:04.293Z,14.94
2023-05-10T06:15:08.373Z,14.98
2023-05-10T06:16:12.783Z,15.03
2023-05-10T06:17:17.324Z,15.05
2023-05-10T06:18:21.632Z,15.09
2023-05-10T06:19:26.229Z,15.08
2023-05-10T06:20:30.601Z,15.09
2023-05-10T06:21:34.426Z,15.09
2023-05-10T06:22:38.746Z,15.17
2023-05-10T06:23:43.343Z,15.18
2023-05-10T06:24:48.688Z,15.22
2023-05-10T06:25:53.057Z,15.28
2023-05-10T06:26:57.104Z,15.33
2023-05-10T06:28:01.958Z,15.33
2023-05-10T06:29:06.025Z,15.31
2023-05-10T06:30:13.317Z,15.30
2023-05-10T06:31:14.476Z,15.34
2023-05-10T06:32:18.783Z,15.36
2023-05-10T06:33:23.363Z,15.29
2023-05-10T06:34:27.463Z,15.30
2023-05-10T06:35:32.063Z,15.22
2023-05-10T06:36:36.405Z,15.18
2023-05-10T06:37:40.764Z,15.16
2023-05-10T06:38:44.811Z,15.16
2023-05-10T06:39:49.157Z,15.13
2023-05-10T06:40:53.750Z,15.14
2023-05-10T06:41:57.912Z,15.11
2023-05-10T06:43:02.168Z,15.11
2023-05-10T06:44:07.763Z,15.03
2023-05-10T06:45:06.619Z,15.07
2023-05-10T06:46:11.268Z,15.08
2023-05-10T06:47:15.307Z,15.06
2023-05-10T06:48:19.918Z,15.01
2023-05-10T06:49:24.238Z,14.93
2023-05-10T06:50:28.328Z,15.04
2023-05-10T06:51:32.669Z,15.07
2023-05-10T06:52:37.268Z,15.09
2023-05-10T06:53:41.339Z,15.10
2023-05-10T06:54:45.446Z,15.15
2023-05-10T06:55:46.056Z,15.11
2023-05-10T06:56:50.122Z,15.17
2023-05-10T06:57:54.745Z,15.22
2023-05-10T06:58:59.077Z,15.23
2023-05-10T07:00:03.715Z,15.08
2023-05-10T07:01:08.106Z,15.00
2023-05-10T07:02:12.293Z,14.95
2023-05-10T07:03:16.469Z,15.01
2023-05-10T07:04:20.536Z,14.97
2023-05-10T07:05:24.873Z,14.95
2023-05-10T07:06:33.321Z,15.05
2023-05-10T07:07:33.805Z,15.06
2023-05-10T07:08:38.109Z,15.01
2023-05-10T07:09:42.716Z,14.99
2023-05-10T07:10:47.028Z,14.99
2023-05-10T07:11:51.914Z,14.98
2023-05-10T07:12:51.091Z,14.93
2023-05-10T07:13:55.739Z,14.94
2023-05-10T07:14:59.977Z,15.09
2023-05-10T07:16:04.390Z,15.15
2023-05-10T07:17:08.403Z,15.17
2023-05-10T07:18:12.738Z,15.24
2023-05-10T07:19:17.048Z,15.26
2023-05-10T07:20:21.873Z,15.27
2023-05-10T07:21:26.016Z,15.28
2023-05-10T07:22:30.320Z,15.42
2023-05-10T07:23:34.649Z,15.54
2023-05-10T07:24:38.995Z,15.62
2023-05-10T07:25:39.112Z,15.56
2023-05-10T07:26:43.498Z,15.55
2023-05-10T07:27:47.521Z,15.51
2023-05-10T07:28:51.850Z,15.49
2023-05-10T07:29:56.224Z,15.45
2023-05-10T07:31:00.823Z,15.51
2023-05-10T07:32:05.196Z,15.55
2023-05-10T07:33:09.775Z,15.57
2023-05-10T07:34:13.808Z,15.53
2023-05-10T07:35:18.086Z,15.49
2023-05-10T07:36:22.224Z,15.57
2023-05-10T07:37:26.554Z,15.63
2023-05-10T07:38:31.144Z,15.68
2023-05-10T07:39:35.228Z,15.65
2023-05-10T07:40:40.114Z,15.65
2023-05-10T07:41:44.417Z,15.59
2023-05-10T07:42:48.245Z,15.65
2023-05-10T07:43:52.586Z,15.65
2023-05-10T07:46:04.007Z,15.58
2023-05-10T07:47:08.903Z,15.49
2023-05-10T07:48:12.729Z,15.46
2023-05-10T07:49:17.071Z,15.46
2023-05-10T07:50:21.932Z,15.53
2023-05-10T07:51:25.984Z,15.51
2023-05-10T07:52:30.091Z,15.54
2023-05-10T07:53:34.660Z,15.59
2023-05-10T07:54:38.978Z,15.64
2023-05-10T07:55:43.071Z,15.68
2023-05-10T07:56:47.683Z,15.66
2023-05-10T07:57:52.021Z,15.70
2023-05-10T07:58:56.084Z,15.68
2023-05-10T08:00:00.936Z,15.71
2023-05-10T08:01:04.775Z,15.82
2023-05-10T08:02:09.405Z,15.81
2023-05-10T08:03:13.580Z,15.70
2023-05-10T08:04:17.850Z,15.76
2023-05-10T08:05:22.369Z,15.79
2023-05-10T08:06:26.447Z,15.81
2023-05-10T08:07:31.063Z,15.73
2023-05-10T08:08:35.634Z,15.61
2023-05-10T08:09:40.005Z,15.63
2023-05-10T08:10:44.053Z,15.57
2023-05-10T08:11:48.118Z,15.59
2023-05-10T08:12:52.722Z,15.60
2023-05-10T08:13:57.050Z,15.57
2023-05-10T08:15:01.144Z,15.52
2023-05-10T08:16:01.553Z,15.53
2023-05-10T08:17:05.564Z,15.46
2023-05-10T08:18:10.005Z,15.31
2023-05-10T08:19:14.502Z,15.45
2023-05-10T08:20:19.100Z,15.57
2023-05-10T08:21:23.421Z,15.66
2023-05-10T08:22:27.531Z,15.73
2023-05-10T08:23:31.580Z,15.81
2023-05-10T08:24:36.197Z,15.79
2023-05-10T08:25:40.548Z,15.85
2023-05-10T08:26:44.595Z,15.93
2023-05-10T08:27:49.225Z,16.00
2023-05-10T08:28:53.287Z,16.00
2023-05-10T08:29:58.119Z,15.96
2023-05-10T08:31:02.243Z,15.91
2023-05-10T08:32:06.537Z,15.89
2023-05-10T08:33:10.652Z,15.91
2023-05-10T08:34:15.248Z,16.00
2023-05-10T08:35:19.553Z,16.05
2023-05-10T08:36:23.876Z,16.10
2023-05-10T08:37:28.227Z,16.13
2023-05-10T08:38:32.569Z,16.05
2023-05-10T08:39:37.151Z,16.07
2023-05-10T08:40:41.211Z,16.14
2023-05-10T08:41:45.585Z,16.26
2023-05-10T08:42:49.903Z,16.23
2023-05-10T08:43:54.005Z,16.23
2023-05-10T08:44:58.335Z,16.32
2023-05-10T08:45:58.698Z,16.40
2023-05-10T08:47:03.106Z,16.46
2023-05-10T08:48:07.203Z,16.49
2023-05-10T08:49:11.715Z,16.68
2023-05-10T08:50:16.318Z,16.88
2023-05-10T08:51:20.365Z,16.95
2023-05-10T08:52:24.446Z,17.01
2023-05-10T08:53:28.772Z,17.01
2023-05-10T08:54:33.414Z,17.17
2023-05-10T08:55:37.451Z,17.36
2023-05-10T08:56:41.845Z,17.49
2023-05-10T08:57:46.391Z,17.59
2023-05-10T08:58:50.996Z,17.72
2023-05-10T08:59:55.312Z,17.91
2023-05-10T09:00:59.209Z,18.20
2023-05-10T09:02:03.765Z,18.38
2023-05-10T09:03:08.166Z,18.51
2023-05-10T09:04:12.279Z,18.58
2023-05-10T09:05:17.169Z,18.80
2023-05-10T09:06:20.897Z,18.88
2023-05-10T09:07:25.203Z,19.02
2023-05-10T09:08:30.046Z,19.18
2023-05-10T09:09:34.135Z,19.33
2023-05-10T09:10:38.209Z,19.46
2023-05-10T09:11:42.805Z,19.50
2023-05-10T09:12:46.895Z,19.62
2023-05-10T09:13:51.248Z,19.61
2023-05-10T09:14:55.845Z,19.51
2023-05-10T09:15:55.987Z,19.55
2023-05-10T09:17:00.053Z,19.67
2023-05-10T09:18:04.645Z,19.77
2023-05-10T09:19:08.762Z,19.93
2023-05-10T09:20:13.556Z,20.17
2023-05-10T09:21:17.626Z,20.45
2023-05-10T09:22:21.977Z,20.77
2023-05-10T09:23:26.022Z,20.88
2023-05-10T09:24:30.370Z,20.93
2023-05-10T09:25:34.698Z,20.73
2023-05-10T09:26:39.280Z,20.61
2023-05-10T09:27:43.635Z,20.36
2023-05-10T09:28:48.201Z,20.40
2023-05-10T09:29:52.530Z,20.72
2023-05-10T09:30:56.383Z,21.04
2023-05-10T09:32:00.684Z,21.39
2023-05-10T09:33:05.399Z,21.64
2023-05-10T09:34:09.346Z,21.94
2023-05-10T09:35:13.691Z,22.00
2023-05-10T09:36:18.274Z,21.99
2023-05-10T09:37:22.335Z,22.01
2023-05-10T09:38:26.974Z,22.37
2023-05-10T09:39:31.037Z,22.79
2023-05-10T09:40:35.384Z,23.36
2023-05-10T09:41:39.974Z,23.59
2023-05-10T09:42:44.077Z,23.91
2023-05-10T09:43:48.691Z,24.07
2023-05-10T09:44:53.007Z,24.40
2023-05-10T09:45:52.992Z,24.49
2023-05-10T09:46:57.199Z,24.45
2023-05-10T09:48:01.602Z,24.75
2023-05-10T09:49:06.152Z,24.88
2023-05-10T09:50:10.727Z,24.99
2023-05-10T09:51:14.547Z,24.68
2023-05-10T09:52:19.141Z,24.72
2023-05-10T09:53:23.484Z,24.68
2023-05-10T09:54:27.579Z,24.66
2023-05-10T09:55:32.150Z,24.72
2023-05-10T09:56:36.518Z,24.81
2023-05-10T09:57:40.567Z,24.29
2023-05-10T09:58:45.394Z,24.26
2023-05-10T09:59:49.492Z,24.18
2023-05-10T10:00:53.583Z,24.27
2023-05-10T10:01:58.245Z,24.42
2023-05-10T10:03:02.555Z,24.54
2023-05-10T10:04:06.581Z,24.41
2023-05-10T10:05:11.229Z,24.44
2023-05-10T10:06:26.346Z,24.29
2023-05-10T10:07:19.846Z,24.27
2023-05-10T10:08:24.195Z,24.12
2023-05-10T10:09:28.542Z,24.30
2023-05-10T10:10:32.641Z,24.23
2023-05-10T10:11:37.265Z,24.55
2023-05-10T10:12:41.560Z,24.98
2023-05-10T10:13:45.632Z,25.15
2023-05-10T10:14:50.229Z,25.16
2023-05-10T10:15:50.377Z,25.02
2023-05-10T10:17:06.738Z,24.71
2023-05-10T10:17:59.091Z,24.75
2023-05-10T10:19:03.643Z,24.95
2023-05-10T10:20:09.919Z,24.96
2023-05-10T10:21:11.790Z,24.76
2023-05-10T10:22:16.382Z,24.80
2023-05-10T10:23:20.454Z,24.76
2023-05-10T10:24:25.051Z,24.64
2023-05-10T10:25:29.114Z,24.62
2023-05-10T10:26:33.800Z,24.51
2023-05-10T10:27:38.040Z,24.59
2023-05-10T10:28:42.646Z,24.54
2023-05-10T10:29:46.728Z,24.54
2023-05-10T10:30:51.090Z,24.54
2023-05-10T10:31:55.188Z,24.84
2023-05-10T10:32:59.536Z,24.86
2023-05-10T10:34:03.796Z,24.85
2023-05-10T10:35:08.395Z,24.81
2023-05-10T10:36:12.460Z,24.94
2023-05-10T10:37:17.336Z,25.02
2023-05-10T10:38:21.409Z,25.11
2023-05-10T10:39:25.471Z,25.14
2023-05-10T10:40:31.307Z,25.42
2023-05-10T10:41:34.417Z,25.40
2023-05-10T10:42:38.506Z,25.35
2023-05-10T10:43:42.883Z,24.85
2023-05-10T10:44:47.168Z,25.01
2023-05-10T10:45:47.646Z,24.78
2023-05-10T10:46:52.007Z,24.75
2023-05-10T10:47:56.066Z,24.83
2023-05-10T10:49:00.895Z,24.91
2023-05-10T10:50:04.980Z,24.88
2023-05-10T10:51:10.689Z,24.88
2023-05-10T10:52:13.427Z,25.11
2023-05-10T10:53:17.762Z,25.04
2023-05-10T10:54:22.377Z,25.24
2023-05-10T10:55:26.446Z,25.66
2023-05-10T10:56:31.091Z,25.72
2023-05-10T10:57:35.608Z,25.83
2023-05-10T10:58:39.978Z,26.10
2023-05-10T10:59:43.793Z,26.26
2023-05-10T11:00:48.432Z,26.53
2023-05-10T11:01:52.474Z,26.21
2023-05-10T11:02:57.129Z,26.22
2023-05-10T11:04:01.164Z,26.10
2023-05-10T11:05:05.740Z,25.49
2023-05-10T11:06:10.084Z,25.29
2023-05-10T11:07:14.679Z,25.11
2023-05-10T11:08:18.775Z,24.91
2023-05-10T11:09:23.103Z,24.63
2023-05-10T11:10:27.154Z,24.38
2023-05-10T11:11:31.748Z,24.28
2023-05-10T11:12:36.066Z,24.05
2023-05-10T11:13:40.419Z,23.68
2023-05-10T11:14:44.764Z,23.16
2023-05-10T11:15:44.930Z,23.01
2023-05-10T11:16:49.308Z,22.93
2023-05-10T11:17:53.648Z,22.49
2023-05-10T11:18:58.267Z,22.47
2023-05-10T11:20:02.301Z,22.32
2023-05-10T11:21:06.638Z,22.24
2023-05-10T11:22:10.958Z,22.04
2023-05-10T11:23:15.051Z,21.72
2023-05-10T11:24:19.379Z,21.57
2023-05-10T11:25:23.707Z,21.41
2023-05-10T11:26:28.034Z,21.39
2023-05-10T11:27:32.877Z,21.17
2023-05-10T11:28:37.243Z,20.95
2023-05-10T11:29:41.316Z,20.91
2023-05-10T11:30:45.455Z,20.83
2023-05-10T11:31:49.730Z,20.76
2023-05-10T11:32:54.434Z,20.73
2023-05-10T11:33:58.434Z,20.73
2023-05-10T11:35:02.775Z,20.56
2023-05-10T11:36:07.352Z,20.75
2023-05-10T11:37:11.699Z,20.94
2023-05-10T11:38:16.028Z,21.20
2023-05-10T11:39:20.376Z,21.54
2023-05-10T11:40:24.469Z,21.97
2023-05-10T11:41:28.822Z,22.43
2023-05-10T11:42:33.135Z,22.80
2023-05-10T11:43:37.759Z,23.12
2023-05-10T11:44:42.087Z,23.24
2023-05-10T11:45:42.200Z,23.20
2023-05-10T11:46:46.456Z,23.34
2023-05-10T11:47:50.657Z,23.36
2023-05-10T11:48:55.494Z,23.47
2023-05-10T11:49:59.308Z,23.40
2023-05-10T11:51:03.917Z,23.58
2023-05-10T11:52:08.003Z,23.44
2023-05-10T11:53:12.325Z,23.56
2023-05-10T11:54:16.899Z,23.59
2023-05-10T11:55:20.976Z,23.66
2023-05-10T11:56:25.567Z,23.60
2023-05-10T11:57:30.162Z,23.70
2023-05-10T11:58:34.233Z,23.52
2023-05-10T11:59:39.197Z,23.52
2023-05-10T12:00:42.654Z,23.49
2023-05-10T12:01:47.253Z,23.37
2023-05-10T12:02:51.696Z,23.53
2023-05-10T12:03:56.064Z,23.42
2023-05-10T12:05:00.184Z,23.21
2023-05-10T12:06:04.910Z,22.77
2023-05-10T12:07:08.936Z,22.70
2023-05-10T12:08:13.041Z,22.94
2023-05-10T12:09:19.205Z,23.20
2023-05-10T12:10:21.712Z,23.55
2023-05-10T12:11:26.298Z,23.82
2023-05-10T12:12:30.644Z,24.04
2023-05-10T12:13:34.967Z,24.43
2023-05-10T12:14:39.083Z,24.66
2023-05-10T12:15:39.436Z,25.09
2023-05-10T12:16:43.819Z,25.39
2023-05-10T12:17:48.186Z,25.14
2023-05-10T12:18:52.863Z,24.55
2023-05-10T12:19:56.806Z,23.78
2023-05-10T12:21:01.118Z,23.97
2023-05-10T12:22:05.468Z,23.97
2023-05-10T12:23:09.547Z,24.17
2023-05-10T12:24:14.145Z,24.24
2023-05-10T12:25:18.484Z,24.43
2023-05-10T12:26:22.812Z,24.32
2023-05-10T12:27:27.153Z,24.22
2023-05-10T12:28:31.516Z,24.38
2023-05-10T12:29:35.561Z,24.17
2023-05-10T12:30:40.178Z,23.70
2023-05-10T12:31:44.528Z,23.66
2023-05-10T12:32:48.641Z,23.55
2023-05-10T12:33:53.187Z,23.20
2023-05-10T12:34:57.270Z,22.93
2023-05-10T12:36:01.869Z,22.85
2023-05-10T12:37:06.228Z,22.77
2023-05-10T12:38:10.289Z,22.74
2023-05-10T12:39:14.631Z,22.64
2023-05-10T12:40:19.486Z,22.73
2023-05-10T12:41:23.372Z,22.78
2023-05-10T12:42:27.631Z,22.88
2023-05-10T12:43:32.238Z,22.95
2023-05-10T12:44:36.560Z,23.14
2023-05-10T12:45:37.003Z,23.22
2023-05-10T12:46:41.050Z,23.33
2023-05-10T12:47:45.670Z,23.63
2023-05-10T12:48:51.785Z,23.83
2023-05-10T12:49:54.043Z,23.81
2023-05-10T12:50:58.517Z,23.77
2023-05-10T12:52:02.469Z,23.74
2023-05-10T12:53:07.070Z,23.85
2023-05-10T12:54:11.410Z,24.05
2023-05-10T12:55:15.761Z,24.20
2023-05-10T12:56:20.118Z,24.53
2023-05-10T12:57:24.689Z,24.58
2023-05-10T12:58:35.691Z,24.84
2023-05-10T12:59:33.460Z,25.03
2023-05-10T13:00:37.437Z,25.26
2023-05-10T13:01:41.597Z,25.29
2023-05-10T13:02:45.894Z,25.48
2023-05-10T13:03:50.190Z,25.54
2023-05-10T13:04:54.859Z,25.62
2023-05-10T13:05:59.141Z,25.65
2023-05-10T13:07:03.745Z,25.69
2023-05-10T13:08:07.814Z,25.64
2023-05-10T13:09:12.181Z,25.64
2023-05-10T13:10:16.642Z,25.51
2023-05-10T13:11:20.913Z,25.30
2023-05-10T13:12:25.177Z,24.76
2023-05-10T13:13:29.259Z,24.74
2023-05-10T13:14:33.845Z,24.74
2023-05-10T13:15:34.248Z,24.48
2023-05-10T13:16:38.372Z,24.23
2023-05-10T13:17:42.704Z,23.70
2023-05-10T13:18:47.098Z,23.62
2023-05-10T13:19:51.072Z,23.57
2023-05-10T13:20:55.685Z,23.46
2023-05-10T13:22:00.007Z,23.38
2023-05-10T13:23:04.111Z,23.24
2023-05-10T13:24:08.669Z,23.20
2023-05-10T13:25:13.021Z,22.97
2023-05-10T13:26:17.592Z,22.74
2023-05-10T13:27:21.687Z,22.73
2023-05-10T13:28:26.041Z,22.66
2023-05-10T13:29:30.111Z,22.49
2023-05-10T13:30:34.704Z,22.34
2023-05-10T13:31:38.883Z,22.33
2023-05-10T13:32:43.457Z,22.15
2023-05-10T13:33:47.470Z,22.16
2023-05-10T13:34:52.064Z,22.07
2023-05-10T13:35:56.682Z,22.00
2023-05-10T13:37:00.740Z,21.95
2023-05-10T13:38:05.107Z,21.86
2023-05-10T13:39:09.496Z,21.71
2023-05-10T13:40:13.809Z,21.79
2023-05-10T13:41:18.178Z,21.70
2023-05-10T13:42:22.495Z,21.70
2023-05-10T13:43:26.564Z,21.60
2023-05-10T13:44:31.445Z,21.52
2023-05-10T13:45:36.786Z,21.48
2023-05-10T13:46:40.962Z,21.41
2023-05-10T13:47:45.009Z,21.30
2023-05-10T13:48:49.555Z,21.20